Time;durP1;ratioP1;P1;durP2;ratioP2;P2;SDS_P1;SDS_P2;PMS_P1;PMS_P2;Temp;Humidity;BMP_temperature;BMP_pressure;BME280_temperature;BME280_humidity;BME280_pressure;Samples;Min_cycle;Max_cycle;Signal;HPM_P1;HPM_P2
2021/05/20 00:01:15;;;;;;;3.17;1.20;;;;;;;14.10;53.73;98152.25;8286345;28;20296;-64
2021/05/20 00:05:18;;;;;;;4.33;1.30;;;;;;;14.17;53.30;98154.41;8286562;28;20232;-64
2021/05/20 00:09:20;;;;;;;3.03;1.20;;;;;;;14.02;53.43;98155.28;8286808;28;20248;-64
2021/05/20 00:13:23;;;;;;;2.17;1.07;;;;;;;14.01;53.81;98156.19;8286797;28;20201;-64
2021/05/20 00:17:26;;;;;;;3.33;1.30;;;;;;;13.99;53.36;98156.28;8286868;28;20492;-64
2021/05/20 00:21:28;;;;;;;2.63;1.10;;;;;;;14.08;52.95;98162.75;8286784;28;20252;-65
2021/05/20 00:25:31;;;;;;;2.50;1.00;;;;;;;14.03;53.12;98160.41;8319074;28;20205;-64
2021/05/20 00:29:33;;;;;;;2.17;0.97;;;;;;;13.96;52.93;98151.25;8318620;28;20209;-64
2021/05/20 00:33:36;;;;;;;2.60;1.10;;;;;;;13.81;52.70;98160.72;8319092;28;20205;-64
2021/05/20 00:37:39;;;;;;;7.83;1.30;;;;;;;13.98;52.66;98161.59;8318609;28;20212;-64
2021/05/20 00:41:41;;;;;;;1.23;0.80;;;;;;;13.87;52.52;98168.19;8318578;28;20229;-64
2021/05/20 00:45:44;;;;;;;3.03;1.00;;;;;;;13.78;52.62;98163.47;8318252;28;20207;-64
2021/05/20 00:49:47;;;;;;;3.43;1.00;;;;;;;13.74;52.30;98163.75;8318305;28;20215;-64
2021/05/20 00:53:50;;;;;;;1.43;0.73;;;;;;;13.62;52.54;98166.09;8318113;28;20207;-64
2021/05/20 00:57:53;;;;;;;3.27;0.90;;;;;;;13.64;52.48;98171.22;8318454;28;20367;-64
2021/05/20 01:01:55;;;;;;;2.03;0.90;;;;;;;13.61;52.38;98166.16;8317963;28;20426;-64
2021/05/20 01:05:58;;;;;;;1.53;0.80;;;;;;;13.35;52.72;98175.38;8284267;28;20217;-64
2021/05/20 01:10:01;;;;;;;2.37;0.83;;;;;;;13.45;52.46;98174.78;8285185;28;20233;-64
2021/05/20 01:14:03;;;;;;;1.53;0.60;;;;;;;13.52;51.96;98179.66;8285362;28;20208;-64
2021/05/20 01:18:07;;;;;;;1.37;0.53;;;;;;;13.39;52.26;98177.72;8285121;28;20201;-64
2021/05/20 01:22:11;;;;;;;3.30;0.83;;;;;;;13.31;52.56;98177.28;8285134;28;20347;-64
2021/05/20 01:26:13;;;;;;;1.33;0.60;;;;;;;13.28;52.33;98183.44;8284776;28;20242;-64
2021/05/20 01:30:16;;;;;;;2.00;0.70;;;;;;;13.24;52.39;98184.50;8284687;28;20504;-64
2021/05/20 01:34:19;;;;;;;4.07;0.80;;;;;;;13.27;52.13;98184.38;8284543;28;20290;-63
2021/05/20 01:42:42;;;;;;;1.37;0.80;;;;;;;13.21;52.61;98179.50;8280635;28;20236;-64
2021/05/20 01:46:44;;;;;;;1.50;0.90;;;;;;;13.13;52.43;98173.00;8284414;28;20397;-64
2021/05/20 01:50:47;;;;;;;2.00;0.73;;;;;;;13.07;52.76;98180.19;8284103;28;20209;-64
2021/05/20 01:54:50;;;;;;;3.97;0.90;;;;;;;12.92;53.04;98180.97;8284414;28;20202;-64
2021/05/20 01:58:53;;;;;;;3.87;0.90;;;;;;;13.02;52.86;98171.78;8284347;28;20202;-64
2021/05/20 02:02:56;;;;;;;1.87;0.80;;;;;;;12.90;53.33;98185.41;8284273;28;20248;-64
2021/05/20 02:06:59;;;;;;;1.47;1.00;;;;;;;12.75;53.66;98188.75;8284036;28;20233;-64
2021/05/20 02:11:03;;;;;;;2.40;1.10;;;;;;;12.82;53.48;98180.59;8285079;28;20508;-64
2021/05/20 02:15:07;;;;;;;2.03;0.90;;;;;;;12.65;54.23;98191.81;8286008;28;20202;-65
2021/05/20 02:19:10;;;;;;;0.83;0.70;;;;;;;12.66;54.34;98190.03;8290303;28;20240;-64
2021/05/20 02:23:13;;;;;;;1.93;0.90;;;;;;;12.72;53.97;98189.75;8290748;28;20202;-64
2021/05/20 02:27:16;;;;;;;3.43;1.03;;;;;;;12.70;53.82;98197.63;8289965;28;20213;-63
2021/05/20 02:31:19;;;;;;;1.37;0.97;;;;;;;12.63;54.10;98192.81;8290134;28;20512;-64
2021/05/20 02:35:21;;;;;;;2.07;0.93;;;;;;;12.58;53.92;98185.22;8290301;28;20226;-64
2021/05/20 02:39:23;;;;;;;4.20;1.00;;;;;;;12.37;54.63;98186.28;8289935;28;20201;-64
2021/05/20 02:43:27;;;;;;;1.20;0.90;;;;;;;12.37;54.87;98188.88;8289831;28;20213;-64
2021/05/20 02:47:29;;;;;;;2.43;1.20;;;;;;;12.35;54.69;98191.53;8289668;28;20492;-64
2021/05/20 02:51:31;;;;;;;0.97;0.87;;;;;;;12.35;55.13;98194.13;8289530;28;20212;-64
2021/05/20 02:55:34;;;;;;;3.50;1.20;;;;;;;12.35;55.09;98190.72;8289574;28;20366;-63
2021/05/20 02:59:37;;;;;;;4.33;1.27;;;;;;;12.23;55.59;98192.13;8288820;28;20216;-64
2021/05/20 03:03:39;;;;;;;1.33;1.00;;;;;;;12.20;55.37;98192.28;8289167;28;20201;-64
2021/05/20 03:07:42;;;;;;;3.43;1.30;;;;;;;12.30;55.35;98206.53;8289081;28;20244;-64
2021/05/20 03:11:44;;;;;;;3.43;1.27;;;;;;;12.23;55.63;98199.94;8289090;28;20398;-63
2021/05/20 03:15:47;;;;;;;3.13;1.30;;;;;;;12.02;56.08;98204.38;8288934;28;20224;-64
2021/05/20 03:19:50;;;;;;;4.53;1.53;;;;;;;12.05;56.05;98206.81;8288314;28;20233;-64
2021/05/20 03:23:53;;;;;;;2.80;1.57;;;;;;;12.13;55.71;98209.91;8288978;28;20201;-64
2021/05/20 03:27:56;;;;;;;3.83;1.20;;;;;;;12.24;55.70;98202.47;8287609;28;20201;-63
2021/05/20 03:31:59;;;;;;;3.00;1.60;;;;;;;12.21;55.09;98205.19;8288182;28;20213;-64
2021/05/20 03:36:01;;;;;;;4.00;1.60;;;;;;;12.29;55.13;98202.22;8287750;28;20209;-64
2021/05/20 03:40:05;;;;;;;2.17;1.60;;;;;;;12.15;55.53;98209.81;8288071;28;20567;-64
2021/05/20 03:44:08;;;;;;;4.70;1.90;;;;;;;12.11;55.95;98216.94;8288115;28;20212;-64
2021/05/20 03:48:11;;;;;;;3.27;1.83;;;;;;;12.05;56.13;98214.59;8287875;28;20209;-64
2021/05/20 03:52:14;;;;;;;4.70;2.00;;;;;;;12.04;56.11;98218.94;8287904;28;20209;-63
2021/05/20 03:56:16;;;;;;;2.20;2.00;;;;;;;12.08;55.93;98222.25;8289066;28;20201;-64
2021/05/20 04:00:19;;;;;;;2.33;2.13;;;;;;;12.12;56.10;98219.44;8319722;28;20232;-64
2021/05/20 04:04:23;;;;;;;2.67;1.80;;;;;;;12.07;56.55;98228.34;8300136;28;20567;-64
2021/05/20 04:08:25;;;;;;;3.13;2.10;;;;;;;12.07;56.56;98228.34;8287362;28;20244;-64
2021/05/20 04:12:27;;;;;;;3.83;2.47;;;;;;;12.09;56.80;98232.56;8287152;28;20212;-64
2021/05/20 04:16:30;;;;;;;5.37;2.07;;;;;;;12.19;57.13;98235.56;8286722;28;20523;-64
2021/05/20 04:20:33;;;;;;;3.13;2.50;;;;;;;12.27;57.17;98243.84;8286739;28;20236;-64
2021/05/20 04:24:35;;;;;;;4.97;2.70;;;;;;;12.30;57.36;98248.06;8286189;28;20202;-63
2021/05/20 04:28:38;;;;;;;3.60;2.80;;;;;;;12.23;58.06;98251.84;8286447;28;20209;-63
2021/05/20 04:32:40;;;;;;;4.60;3.37;;;;;;;12.21;58.39;98251.91;8286049;28;20205;-64
2021/05/20 04:36:43;;;;;;;4.83;3.27;;;;;;;12.30;58.35;98253.25;8286398;28;20493;-64
2021/05/20 04:40:46;;;;;;;3.40;2.83;;;;;;;12.41;58.30;98263.97;8285958;28;20239;-64
2021/05/20 04:44:48;;;;;;;3.90;3.40;;;;;;;12.49;58.42;98267.06;8285801;28;20389;-64
2021/05/20 04:48:51;;;;;;;4.17;3.17;;;;;;;12.54;58.20;98269.44;8285578;28;20202;-64
2021/05/20 04:52:54;;;;;;;5.10;3.70;;;;;;;12.60;58.31;98278.69;8285299;28;20210;-64
2021/05/20 04:56:56;;;;;;;9.23;3.80;;;;;;;12.55;59.04;98275.50;8285347;28;20280;-64
2021/05/20 05:00:59;;;;;;;6.53;4.17;;;;;;;12.68;58.44;98287.81;8285407;28;20236;-64
2021/05/20 05:05:01;;;;;;;7.87;4.40;;;;;;;12.78;58.57;98293.41;8285260;28;20320;-64
2021/05/20 05:09:05;;;;;;;5.23;4.00;;;;;;;12.74;58.49;98291.00;8284804;28;20237;-64
2021/05/20 05:13:07;;;;;;;6.87;4.37;;;;;;;12.77;58.95;98294.31;8284835;28;20205;-64
2021/05/20 05:17:10;;;;;;;6.70;4.87;;;;;;;12.84;58.17;98298.31;8285024;28;20394;-63
2021/05/20 05:21:12;;;;;;;7.70;4.53;;;;;;;12.95;58.21;98292.59;8284828;28;20233;-63
2021/05/20 05:25:16;;;;;;;6.97;4.97;;;;;;;13.08;58.05;98295.44;8284993;28;20273;-63
2021/05/20 05:29:18;;;;;;;7.80;4.53;;;;;;;12.94;58.63;98303.91;8284540;28;20276;-64
2021/05/20 05:33:22;;;;;;;5.00;4.37;;;;;;;13.10;58.55;98306.59;8284538;28;20212;-64
2021/05/20 05:37:24;;;;;;;6.10;4.30;;;;;;;13.19;58.33;98306.13;8284729;28;20202;-64
2021/05/20 05:41:29;;;;;;;5.67;3.97;;;;;;;13.21;58.15;98306.06;8284677;28;20248;-64
2021/05/20 05:45:32;;;;;;;4.57;3.63;;;;;;;13.36;58.16;98309.69;8294707;28;20427;-63
2021/05/20 05:49:39;;;;;;;5.50;3.43;;;;;;;13.28;57.76;98308.28;8294810;28;20396;-64
2021/05/20 05:53:42;;;;;;;4.17;3.77;;;;;;;13.34;58.20;98316.72;8283687;28;20390;-64
2021/05/20 05:57:45;;;;;;;3.97;3.40;;;;;;;13.28;58.45;98320.44;8283987;28;20555;-63
2021/05/20 06:01:48;;;;;;;5.50;4.40;;;;;;;13.35;57.93;98327.06;8286074;28;20226;-64
2021/05/20 06:05:50;;;;;;;6.60;5.03;;;;;;;13.35;57.83;98327.06;8284340;28;20401;-63
2021/05/20 06:09:53;;;;;;;5.23;4.73;;;;;;;13.52;57.36;98325.34;8283040;28;20283;-63
2021/05/20 06:13:56;;;;;;;4.33;3.63;;;;;;;13.48;57.40;98330.72;8283474;28;20507;-63
2021/05/20 06:17:59;;;;;;;4.90;3.50;;;;;;;13.54;56.88;98337.38;8284757;28;20201;-64
2021/05/20 06:22:01;;;;;;;6.37;3.70;;;;;;;13.36;58.17;98340.91;8283054;28;20317;-64
2021/05/20 06:26:03;;;;;;;5.40;3.77;;;;;;;13.34;58.08;98338.38;8283387;28;20205;-63
2021/05/20 06:30:07;;;;;;;3.87;3.30;;;;;;;13.44;57.81;98342.22;8283964;28;20225;-63
2021/05/20 06:34:10;;;;;;;6.67;4.20;;;;;;;13.42;57.62;98346.66;8283775;28;20213;-64
2021/05/20 06:38:12;;;;;;;6.60;3.47;;;;;;;13.36;57.95;98361.72;8283530;28;20220;-63
2021/05/20 06:42:15;;;;;;;5.63;3.80;;;;;;;13.51;57.65;98365.31;8283761;28;20237;-63
2021/05/20 06:46:19;;;;;;;5.43;3.73;;;;;;;13.60;57.33;98362.25;8307891;28;20209;-63
2021/05/20 06:50:21;;;;;;;3.40;3.10;;;;;;;13.64;57.54;98358.59;8315866;28;20209;-63
2021/05/20 06:54:24;;;;;;;5.17;3.60;;;;;;;13.91;57.56;98366.72;8315833;28;20231;-64
2021/05/20 07:02:48;;;;;;;4.13;3.20;;;;;;;13.88;56.91;98370.34;8295776;28;20409;-64
2021/05/20 07:06:50;;;;;;;3.20;2.90;;;;;;;13.99;56.99;98379.34;8301204;28;20340;-64
2021/05/20 07:11:00;;;;;;;9.00;3.23;;;;;;;13.79;59.59;98388.19;8307791;28;20205;-64
2021/05/20 07:15:04;;;;;;;4.73;3.57;;;;;;;13.93;59.70;98385.72;8321005;28;20201;-66
2021/05/20 07:19:08;;;;;;;4.77;3.60;;;;;;;14.02;59.34;98382.66;8301566;28;20204;-64
2021/05/20 07:23:11;;;;;;;6.20;3.97;;;;;;;13.94;60.03;98382.22;8312077;28;20238;-65
2021/05/20 07:27:13;;;;;;;5.40;3.63;;;;;;;14.16;59.25;98379.31;8287952;28;20198;-63
2021/05/20 07:31:16;;;;;;;4.60;3.50;;;;;;;14.41;59.05;98380.63;8288296;28;20522;-64
2021/05/20 07:35:19;;;;;;;4.83;3.73;;;;;;;14.62;57.67;98382.13;8296704;28;20534;-63
2021/05/20 07:39:21;;;;;;;3.33;2.87;;;;;;;14.65;56.93;98384.56;8320652;28;20212;-64
2021/05/20 07:43:24;;;;;;;6.67;1.67;;;;;;;15.40;60.36;98386.50;8319094;28;20228;-69
2021/05/20 07:47:26;;;;;;;7.97;2.37;;;;;;;16.64;53.53;98378.28;8287513;28;20206;-69
2021/05/20 07:51:30;;;;;;;19.87;2.37;;;;;;;17.05;51.45;98384.47;8287813;28;20426;-68
2021/05/20 07:55:33;;;;;;;4.80;2.70;;;;;;;16.64;50.80;98375.66;8287401;28;20208;-63
2021/05/20 07:59:35;;;;;;;4.67;2.60;;;;;;;16.33;51.72;98387.97;8287700;28;20365;-64
2021/05/20 08:03:41;;;;;;;3.90;3.03;;;;;;;15.92;52.00;98383.50;8286464;28;20236;-65
2021/05/20 08:07:50;;;;;;;4.73;2.50;;;;;;;15.82;52.51;98375.38;8287354;28;20248;-65
2021/05/20 08:11:52;;;;;;;5.17;3.20;;;;;;;15.61;52.57;98380.06;8315378;28;20476;-64
2021/05/20 08:15:54;;;;;;;3.30;1.80;;;;;;;16.35;53.13;98375.66;8319016;28;20204;-71
2021/05/20 08:19:57;;;;;;;3.83;1.90;;;;;;;16.88;51.03;98375.91;8319420;28;20201;-71
2021/05/20 08:24:00;;;;;;;6.07;1.80;;;;;;;17.22;49.78;98380.75;8319322;28;20229;-70
2021/05/20 08:28:03;;;;;;;4.00;1.80;;;;;;;17.63;48.52;98379.78;8319279;28;20201;-70
2021/05/20 08:32:06;;;;;;;3.50;1.90;;;;;;;18.43;46.54;98375.25;8319127;28;20204;-70
2021/05/20 08:36:09;;;;;;;3.45;2.20;;;;;;;17.89;45.52;98376.28;8318198;28;20420;-62
2021/05/20 08:40:13;;;;;;;4.93;3.10;;;;;;;17.22;47.91;98378.97;8318499;28;20251;-62
2021/05/20 08:44:17;;;;;;;3.07;2.07;;;;;;;17.06;48.09;98373.03;8310657;28;20225;-62
2021/05/20 08:48:40;;;;;;;3.10;2.20;;;;;;;18.27;45.36;98364.13;8285322;28;20196;-61
2021/05/20 08:52:43;;;;;;;2.83;1.97;;;;;;;17.46;46.44;98373.91;8285219;28;20229;-61
2021/05/20 08:56:47;;;;;;;4.23;2.13;;;;;;;17.07;46.96;98367.72;8284735;28;20200;-62
2021/05/20 09:00:49;;;;;;;4.53;2.07;;;;;;;16.77;48.49;98362.63;8284725;28;20194;-61
2021/05/20 09:05:03;;;;;;;5.67;2.60;;;;;;;18.47;43.75;98365.38;8281821;28;20255;-62
2021/05/20 09:09:08;;;;;;;3.40;2.03;;;;;;;17.91;44.73;98358.69;8284453;28;20221;-62
2021/05/20 09:13:13;;;;;;;4.20;1.30;;;;;;;16.76;49.40;98372.25;8283605;28;20198;-62
2021/05/20 09:17:17;;;;;;;5.07;1.30;;;;;;;16.29;51.85;98383.06;8283806;28;20186;-62
2021/05/20 09:21:19;;;;;;;0.77;0.77;;;;;;;15.97;52.24;98393.66;8284684;28;20222;-62
2021/05/20 09:25:22;;;;;;;1.23;0.83;;;;;;;16.13;51.27;98385.75;8284419;28;20269;-62
2021/05/20 09:29:25;;;;;;;2.33;1.83;;;;;;;16.03;52.72;98382.88;8285011;28;20208;-62
2021/05/20 09:33:28;;;;;;;1.97;1.30;;;;;;;16.17;54.50;98376.81;8284843;28;20212;-62
2021/05/20 09:37:30;;;;;;;2.17;1.70;;;;;;;16.95;51.65;98374.56;8284903;28;20201;-62
2021/05/20 09:41:33;;;;;;;4.07;3.50;;;;;;;17.79;50.74;98378.66;8284280;28;20230;-65
2021/05/20 09:45:36;;;;;;;0.70;0.60;;;;;;;18.37;46.79;98373.03;8284280;28;20527;-64
2021/05/20 09:49:55;;;;;;;1.93;0.97;;;;;;;18.97;44.60;98363.56;8284154;28;20212;-64
2021/05/20 09:53:58;;;;;;;2.13;1.43;;;;;;;18.61;45.55;98367.00;8284202;28;20218;-65
2021/05/20 09:58:07;;;;;;;1.97;1.57;;;;;;;17.49;48.46;98378.94;8284133;28;20202;-65
2021/05/20 10:02:16;;;;;;;2.60;1.30;;;;;;;16.75;50.09;98377.56;8284368;28;20230;-65
2021/05/20 10:06:34;;;;;;;2.63;1.53;;;;;;;16.37;53.89;98383.41;8284531;28;20221;-64
2021/05/20 10:10:38;;;;;;;2.20;1.53;;;;;;;16.11;53.30;98378.00;8301805;28;20203;-64
2021/05/20 10:14:41;;;;;;;2.57;2.20;;;;;;;16.10;54.18;98380.72;8316539;28;20205;-64
2021/05/20 10:18:44;;;;;;;4.00;3.20;;;;;;;16.49;54.30;98361.75;8316861;28;20425;-65
2021/05/20 10:22:49;;;;;;;4.73;3.40;;;;;;;16.96;53.80;98363.19;8316336;28;20539;-64
2021/05/20 10:26:52;;;;;;;2.50;1.50;;;;;;;17.04;53.20;98364.44;8293274;28;20202;-65
2021/05/20 10:30:56;;;;;;;1.53;1.10;;;;;;;17.25;51.99;98359.59;8283884;28;20208;-64
2021/05/20 10:35:01;;;;;;;1.37;1.27;;;;;;;17.50;52.75;98361.47;8283660;28;20206;-64
2021/05/20 10:39:19;;;;;;;1.93;1.30;;;;;;;17.17;52.37;98347.00;8289978;28;20500;-64
2021/05/20 10:43:29;;;;;;;2.83;1.53;;;;;;;17.48;51.04;98352.88;8289535;28;20543;-64
2021/05/20 10:47:31;;;;;;;3.50;1.60;;;;;;;18.51;51.01;98340.59;8289996;28;20454;-65
2021/05/20 10:51:36;;;;;;;8.33;1.80;;;;;;;19.67;48.08;98341.75;8289713;28;20375;-60
2021/05/20 10:55:38;;;;;;;5.77;1.90;;;;;;;19.91;45.57;98348.75;8289302;28;20202;-59
2021/05/20 10:59:43;;;;;;;4.87;1.83;;;;;;;18.81;46.68;98362.97;8289185;28;20208;-59
2021/05/20 11:03:53;;;;;;;5.23;1.80;;;;;;;17.78;50.31;98382.25;8289102;28;20232;-59
2021/05/20 11:07:56;;;;;;;4.73;1.83;;;;;;;16.96;53.67;98380.63;8288009;28;20300;-58
2021/05/20 11:11:59;;;;;;;3.70;1.60;;;;;;;17.21;51.71;98393.00;8291154;28;20198;-58
2021/05/20 11:16:15;;;;;;;5.00;2.00;;;;;;;17.24;51.85;98397.19;8288154;28;20204;-60
2021/05/20 11:20:41;;;;;;;3.27;1.10;;;;;;;16.39;53.46;98387.63;8287199;28;20204;-60
2021/05/20 11:25:09;;;;;;;0.77;0.77;;;;;;;15.95;53.89;98391.13;8285767;28;20226;-61
2021/05/20 11:29:15;;;;;;;5.87;1.30;;;;;;;16.16;54.63;98378.59;8286266;28;20523;-61
2021/05/20 11:33:18;;;;;;;1.17;0.83;;;;;;;15.95;54.51;98379.84;8287699;28;20202;-61
2021/05/20 11:37:25;;;;;;;3.07;0.97;;;;;;;15.74;55.75;98368.91;8287343;28;20194;-61
2021/05/20 11:41:30;;;;;;;5.17;1.23;;;;;;;15.44;56.98;98367.97;8285317;28;20213;-61
2021/05/20 11:45:34;;;;;;;2.90;1.77;;;;;;;15.57;57.68;98365.50;8287264;28;20201;-61
2021/05/20 11:49:38;;;;;;;3.87;1.80;;;;;;;15.70;58.47;98359.56;8285799;28;20385;-62
2021/05/20 11:53:41;;;;;;;2.73;2.07;;;;;;;15.55;56.61;98354.28;8286789;28;20217;-62
2021/05/20 11:57:44;;;;;;;3.13;2.77;;;;;;;15.79;57.80;98359.88;8286868;28;20204;-62
2021/05/20 12:01:55;;;;;;;5.30;2.23;;;;;;;15.74;58.42;98353.25;8284436;28;20233;-61
2021/05/20 12:06:00;;;;;;;2.77;2.50;;;;;;;15.85;57.60;98350.00;8285004;28;20218;-61
2021/05/20 12:10:11;;;;;;;3.50;2.30;;;;;;;15.72;57.46;98355.91;8287245;28;20238;-61
2021/05/20 12:14:25;;;;;;;6.87;2.67;;;;;;;15.92;58.34;98340.88;8286367;28;20516;-61
2021/05/20 12:18:28;;;;;;;4.10;2.30;;;;;;;15.84;57.42;98325.69;8285026;28;20202;-62
2021/05/20 12:22:31;;;;;;;4.43;2.77;;;;;;;15.61;57.71;98332.22;8286956;28;20249;-62
2021/05/20 12:26:37;;;;;;;4.27;2.63;;;;;;;15.89;57.51;98321.00;8286659;28;20419;-62
2021/05/20 12:30:41;;;;;;;3.70;3.30;;;;;;;15.95;58.18;98325.00;8286874;28;20208;-61
2021/05/20 12:34:44;;;;;;;10.23;5.30;;;;;;;15.77;56.83;98317.34;8286606;28;20205;-61
2021/05/20 12:38:46;;;;;;;9.97;6.03;;;;;;;15.90;56.96;98321.84;8285931;28;20213;-62
2021/05/20 12:43:01;;;;;;;4.70;3.17;;;;;;;16.06;56.87;98309.53;8286134;28;20240;-61
2021/05/20 12:47:15;;;;;;;4.27;3.17;;;;;;;16.08;55.92;98309.44;8286197;28;20198;-68
2021/05/20 12:51:23;;;;;;;4.27;3.87;;;;;;;16.17;55.21;98301.88;8285679;28;20208;-68
2021/05/20 12:55:36;;;;;;;3.50;3.17;;;;;;;16.48;55.59;98299.94;8285519;28;20213;-68
2021/05/20 12:59:40;;;;;;;5.03;3.13;;;;;;;16.58;53.59;98301.06;8285242;28;20201;-68
2021/05/20 13:03:46;;;;;;;3.37;3.07;;;;;;;16.84;55.46;98297.75;8285146;28;20225;-68
2021/05/20 13:07:48;;;;;;;4.13;3.63;;;;;;;17.60;54.86;98297.03;8285525;28;20252;-68
2021/05/20 13:11:58;;;;;;;3.67;3.27;;;;;;;17.81;52.33;98288.69;8285126;28;20205;-68
2021/05/20 13:16:16;;;;;;;4.33;2.90;;;;;;;18.30;51.02;98282.66;8285283;28;20492;-68
2021/05/20 13:24:46;;;;;;;3.27;2.90;;;;;;;18.58;48.62;98281.50;8275323;28;20228;-61
2021/05/20 13:28:50;;;;;;;3.13;2.70;;;;;;;18.25;48.56;98272.47;8284702;28;20462;-61
2021/05/20 13:32:55;;;;;;;3.67;2.77;;;;;;;18.95;48.10;98278.88;8285479;28;20392;-61
2021/05/20 13:36:59;;;;;;;3.00;2.47;;;;;;;19.11;46.17;98258.41;8285178;28;20216;-61
2021/05/20 13:41:01;;;;;;;2.23;2.03;;;;;;;19.60;46.91;98255.66;8285287;28;20209;-64
2021/05/20 13:45:04;;;;;;;2.23;2.00;;;;;;;19.70;44.04;98252.19;8285775;28;20305;-62
2021/05/20 13:49:07;;;;;;;4.07;1.80;;;;;;;19.82;44.15;98250.44;8308771;28;20390;-62
2021/05/20 13:53:23;;;;;;;1.87;1.70;;;;;;;19.88;42.39;98241.25;8316887;28;20395;-62
2021/05/20 13:57:25;;;;;;;2.83;2.00;;;;;;;20.24;41.58;98245.38;8316584;28;20205;-62
2021/05/20 14:01:30;;;;;;;2.40;2.20;;;;;;;20.29;40.68;98235.31;8316566;28;20201;-62
2021/05/20 14:05:33;;;;;;;3.90;1.73;;;;;;;19.82;42.04;98234.66;8316481;28;20465;-59
2021/05/20 14:09:42;;;;;;;3.43;1.80;;;;;;;20.38;40.49;98230.28;8317164;28;20237;-60
2021/05/20 14:13:46;;;;;;;4.93;1.60;;;;;;;20.37;42.27;98228.59;8322482;28;20211;-60
2021/05/20 14:17:49;;;;;;;6.63;1.80;;;;;;;19.72;44.01;98217.94;8323407;28;20212;-60
2021/05/20 14:21:52;;;;;;;4.93;1.67;;;;;;;20.09;43.40;98215.06;8322872;28;20202;-60
2021/05/20 14:25:55;;;;;;;3.93;1.43;;;;;;;19.83;41.74;98214.47;8322570;28;20212;-60
2021/05/20 14:29:58;;;;;;;6.63;1.50;;;;;;;19.60;43.50;98211.00;8324676;28;20526;-60
2021/05/20 14:34:00;;;;;;;7.43;1.67;;;;;;;19.39;44.15;98209.06;8322761;28;20214;-60
2021/05/20 14:38:02;;;;;;;5.93;1.90;;;;;;;19.12;43.25;98206.75;8322965;28;20202;-60
2021/05/20 14:42:07;;;;;;;5.73;1.80;;;;;;;19.36;43.39;98211.06;8322917;28;20213;-59
2021/05/20 14:46:10;;;;;;;6.33;1.77;;;;;;;19.13;42.71;98206.63;8299432;28;20581;-59
2021/05/20 14:50:13;;;;;;;15.97;2.20;;;;;;;19.57;43.56;98206.78;8289670;28;20202;-60
2021/05/20 14:54:19;;;;;;;5.03;1.50;;;;;;;19.70;41.22;98207.53;8290831;28;20206;-60
2021/05/20 15:06:53;;;;;;;1.57;1.00;;;;;;;19.76;37.16;98202.78;8288429;28;20230;-60
2021/05/20 15:11:05;;;;;;;8.03;1.53;;;;;;;19.86;40.34;98199.31;8288735;28;20208;-59
2021/05/20 15:15:14;;;;;;;1.33;0.90;;;;;;;19.45;34.89;98194.63;8287678;28;20426;-69
2021/05/20 15:19:17;;;;;;;1.07;0.73;;;;;;;18.93;35.60;98202.03;8289096;28;20272;-70
2021/05/20 15:23:19;;;;;;;1.67;0.90;;;;;;;18.69;36.04;98197.63;8287285;28;20233;-70
2021/05/20 15:27:22;;;;;;;2.77;2.40;;;;;;;18.75;38.00;98196.34;8288924;28;20202;-69
2021/05/20 15:31:25;;;;;;;2.53;0.90;;;;;;;18.79;36.95;98186.44;8287645;28;20221;-69
2021/05/20 15:35:28;;;;;;;2.63;0.73;;;;;;;18.89;36.48;98183.06;8287879;28;20201;-69
2021/05/20 15:39:32;;;;;;;1.43;1.10;;;;;;;18.78;36.77;98190.88;8287616;28;20198;-69
2021/05/20 15:43:35;;;;;;;1.90;1.00;;;;;;;18.50;37.26;98192.06;8301293;28;20231;-69
2021/05/20 15:47:43;;;;;;;2.63;1.10;;;;;;;18.77;37.54;98189.19;8287393;28;20209;-69
2021/05/20 15:51:46;;;;;;;1.17;1.00;;;;;;;18.85;36.06;98186.00;8287558;28;20214;-69
2021/05/20 15:55:49;;;;;;;1.07;0.97;;;;;;;18.88;36.61;98191.88;8287301;28;20399;-69
2021/05/20 15:59:51;;;;;;;3.03;1.23;;;;;;;18.93;35.98;98178.44;8287101;28;20201;-68
2021/05/20 16:03:54;;;;;;;0.80;0.80;;;;;;;18.43;35.23;98180.34;8287096;28;20324;-68
2021/05/20 16:08:02;;;;;;;1.47;1.13;;;;;;;18.64;35.72;98180.56;8286979;28;20248;-70
2021/05/20 16:12:14;;;;;;;2.87;0.90;;;;;;;19.05;36.21;98174.88;8286808;28;20208;-60
2021/05/20 16:16:16;;;;;;;2.27;1.00;;;;;;;18.98;36.22;98171.03;8287150;28;20209;-60
2021/05/20 16:20:27;;;;;;;2.33;1.00;;;;;;;18.60;37.22;98169.47;8265432;28;20391;-61
2021/05/20 16:24:44;;;;;;;2.07;0.90;;;;;;;18.71;37.56;98172.13;8285803;28;20232;-61
2021/05/20 16:37:28;;;;;;;1.07;0.80;;;;;;;18.49;37.00;98138.78;8283390;28;20204;-61
2021/05/20 16:41:30;;;;;;;1.23;0.90;;;;;;;18.51;37.50;98128.19;8285409;28;20205;-61
2021/05/20 16:45:33;;;;;;;0.90;0.83;;;;;;;18.48;38.35;98129.22;8285336;28;20253;-60
2021/05/20 16:49:36;;;;;;;3.10;0.80;;;;;;;18.39;37.71;98134.31;8285668;28;20198;-62
2021/05/20 16:53:39;;;;;;;1.57;0.90;;;;;;;18.28;38.81;98138.59;8285164;28;20202;-61
2021/05/20 16:57:54;;;;;;;0.60;0.60;;;;;;;18.32;38.88;98126.09;8289570;28;20480;-61
2021/05/20 17:01:57;;;;;;;0.97;0.87;;;;;;;18.21;38.84;98123.41;8291160;28;20384;-61
2021/05/20 17:05:59;;;;;;;2.17;1.00;;;;;;;18.15;38.08;98128.16;8285649;28;20240;-62
2021/05/20 17:10:03;;;;;;;1.13;0.80;;;;;;;18.16;37.88;98121.97;8285252;28;20236;-62
2021/05/20 17:14:05;;;;;;;2.30;1.10;;;;;;;18.07;38.21;98122.63;8285144;28;20206;-61
2021/05/20 17:18:08;;;;;;;1.27;1.03;;;;;;;18.01;38.56;98119.63;8285028;28;20206;-61
2021/05/20 17:22:12;;;;;;;1.20;1.00;;;;;;;17.95;39.15;98113.03;8285161;28;20202;-61
2021/05/20 17:26:16;;;;;;;1.10;1.00;;;;;;;17.92;38.96;98111.47;8285738;28;20232;-61
2021/05/20 17:30:20;;;;;;;1.07;0.90;;;;;;;17.82;38.89;98113.06;8285317;28;20202;-61
2021/05/20 17:34:22;;;;;;;1.87;1.33;;;;;;;17.87;39.76;98112.75;8284155;28;20201;-61
2021/05/20 17:38:26;;;;;;;1.40;1.00;;;;;;;17.74;39.62;98108.38;8286754;28;20194;-61
2021/05/20 17:42:30;;;;;;;1.00;0.90;;;;;;;17.63;39.76;98108.31;8284321;28;20202;-61
2021/05/20 17:46:32;;;;;;;2.70;0.80;;;;;;;17.55;40.31;98108.84;8283179;28;20236;-61
2021/05/20 17:50:34;;;;;;;2.43;0.77;;;;;;;17.52;41.17;98116.91;8284715;28;20201;-62
2021/05/20 17:54:38;;;;;;;0.90;0.70;;;;;;;17.47;41.19;98116.38;8284211;28;20276;-61
2021/05/20 17:58:43;;;;;;;0.73;0.73;;;;;;;17.45;41.58;98118.28;8284021;28;20207;-61
2021/05/20 18:02:46;;;;;;;5.70;5.20;;;;;;;17.39;41.82;98111.69;8284541;28;20201;-61
2021/05/20 18:06:48;;;;;;;2.90;2.63;;;;;;;17.34;42.07;98108.56;8283865;28;20233;-61
2021/05/20 18:10:59;;;;;;;3.50;3.00;;;;;;;17.29;42.15;98110.66;8284577;28;20186;-61
2021/05/20 18:15:06;;;;;;;5.80;3.20;;;;;;;17.23;42.71;98105.00;8284258;28;20276;-61
2021/05/20 18:19:23;;;;;;;4.73;4.20;;;;;;;17.17;43.07;98103.66;8284288;28;20202;-62
2021/05/20 18:23:25;;;;;;;4.87;4.37;;;;;;;17.09;43.48;98095.50;8283887;28;20230;-67
2021/05/20 18:27:28;;;;;;;44.70;34.07;;;;;;;17.03;43.66;98093.31;8283728;28;20212;-66
2021/05/20 18:31:34;;;;;;;8.77;7.07;;;;;;;16.99;44.06;98098.75;8283673;28;20209;-66
2021/05/20 18:35:36;;;;;;;3.47;2.40;;;;;;;16.92;44.73;98091.41;8284351;28;20205;-67
2021/05/20 18:39:41;;;;;;;2.80;2.07;;;;;;;16.83;44.97;98082.44;8283947;28;20261;-66
2021/05/20 18:43:44;;;;;;;2.73;2.43;;;;;;;16.72;47.07;98090.97;8284265;28;20225;-67
2021/05/20 18:47:48;;;;;;;4.67;2.77;;;;;;;16.68;46.33;98089.50;8284074;28;20201;-66
2021/05/20 18:51:55;;;;;;;2.70;1.93;;;;;;;16.68;44.84;98101.72;8283594;28;20269;-67
2021/05/20 18:56:00;;;;;;;22.43;19.80;;;;;;;16.62;46.15;98113.47;8296129;28;20205;-67
2021/05/20 19:00:04;;;;;;;14.13;11.67;;;;;;;16.50;47.55;98094.16;8322262;28;20520;-68
2021/05/20 19:04:08;;;;;;;2.97;2.50;;;;;;;16.38;46.90;98093.22;8321905;28;20229;-67
2021/05/20 19:08:12;;;;;;;3.97;1.97;;;;;;;16.38;47.01;98084.53;8321505;28;20547;-66
2021/05/20 19:12:15;;;;;;;5.00;2.40;;;;;;;16.31;48.01;98080.66;8294715;28;20213;-68
2021/05/20 19:16:18;;;;;;;4.60;3.50;;;;;;;16.14;49.32;98085.19;8288288;28;20206;-67
2021/05/20 19:20:23;;;;;;;9.07;2.97;;;;;;;16.20;49.68;98091.81;8288048;28;20398;-66
2021/05/20 19:24:25;;;;;;;7.70;3.50;;;;;;;16.10;50.72;98088.94;8287089;28;20228;-67
2021/05/20 19:28:32;;;;;;;5.27;3.07;;;;;;;16.05;51.52;98077.13;8287163;28;20489;-67
2021/05/20 19:32:35;;;;;;;4.70;3.40;;;;;;;16.08;51.92;98080.38;8286858;28;20220;-68
2021/05/20 19:36:38;;;;;;;4.13;3.57;;;;;;;15.97;51.96;98078.47;8287233;28;20198;-67
2021/05/20 19:40:40;;;;;;;6.70;3.87;;;;;;;15.87;51.29;98071.34;8287205;28;20489;-67